sensor_id;sensor_type;location;lat;lon;timestamp;P1;durP1;ratioP1;P2;durP2;ratioP2
51495;SDS011;37572;52.094;4.870;2022-12-18T00:00:58;96.05;;;28.33;;
51495;SDS011;37572;52.094;4.870;2022-12-18T00:03:24;103.63;;;31.50;;
51495;SDS011;37572;52.094;4.870;2022-12-18T00:05:50;93.32;;;28.95;;
51495;SDS011;37572;52.094;4.870;2022-12-18T00:08:15;97.50;;;28.35;;
51495;SDS011;37572;52.094;4.870;2022-12-18T00:10:41;99.13;;;28.08;;
51495;SDS011;37572;52.094;4.870;2022-12-18T00:13:06;106.23;;;33.63;;
51495;SDS011;37572;52.094;4.870;2022-12-18T00:15:33;106.67;;;28.97;;
51495;SDS011;37572;52.094;4.870;2022-12-18T00:17:58;101.32;;;30.10;;
51495;SDS011;37572;52.094;4.870;2022-12-18T00:20:23;102.60;;;27.40;;
51495;SDS011;37572;52.094;4.870;2022-12-18T00:22:51;90.80;;;27.95;;
51495;SDS011;37572;52.094;4.870;2022-12-18T00:25:16;99.15;;;29.05;;
51495;SDS011;37572;52.094;4.870;2022-12-18T00:27:41;87.03;;;28.10;;
51495;SDS011;37572;52.094;4.870;2022-12-18T00:30:06;94.25;;;26.75;;
51495;SDS011;37572;52.094;4.870;2022-12-18T00:32:32;82.03;;;26.13;;
51495;SDS011;37572;52.094;4.870;2022-12-18T00:34:57;84.32;;;29.00;;
51495;SDS011;37572;52.094;4.870;2022-12-18T00:37:22;88.93;;;27.33;;
51495;SDS011;37572;52.094;4.870;2022-12-18T00:39:48;82.67;;;26.03;;
51495;SDS011;37572;52.094;4.870;2022-12-18T00:42:13;97.77;;;28.40;;
51495;SDS011;37572;52.094;4.870;2022-12-18T00:44:56;87.15;;;28.55;;
51495;SDS011;37572;52.094;4.870;2022-12-18T00:47:22;90.20;;;28.90;;
51495;SDS011;37572;52.094;4.870;2022-12-18T00:49:47;86.33;;;26.90;;
51495;SDS011;37572;52.094;4.870;2022-12-18T00:52:12;106.13;;;31.30;;
51495;SDS011;37572;52.094;4.870;2022-12-18T00:54:37;100.93;;;30.83;;
51495;SDS011;37572;52.094;4.870;2022-12-18T00:57:02;85.43;;;30.60;;
51495;SDS011;37572;52.094;4.870;2022-12-18T00:59:28;99.63;;;29.20;;
51495;SDS011;37572;52.094;4.870;2022-12-18T01:01:53;100.03;;;31.07;;
51495;SDS011;37572;52.094;4.870;2022-12-18T01:04:18;97.73;;;29.40;;
51495;SDS011;37572;52.094;4.870;2022-12-18T01:06:43;84.63;;;29.63;;
51495;SDS011;37572;52.094;4.870;2022-12-18T01:09:08;106.07;;;30.47;;
51495;SDS011;37572;52.094;4.870;2022-12-18T01:11:33;97.77;;;29.03;;
51495;SDS011;37572;52.094;4.870;2022-12-18T01:13:59;93.67;;;28.03;;
51495;SDS011;37572;52.094;4.870;2022-12-18T01:16:24;90.93;;;27.40;;
51495;SDS011;37572;52.094;4.870;2022-12-18T01:18:52;104.47;;;29.87;;
51495;SDS011;37572;52.094;4.870;2022-12-18T01:21:18;92.80;;;28.35;;
51495;SDS011;37572;52.094;4.870;2022-12-18T01:23:43;91.67;;;28.33;;
51495;SDS011;37572;52.094;4.870;2022-12-18T01:26:10;94.67;;;28.77;;
51495;SDS011;37572;52.094;4.870;2022-12-18T01:28:36;90.95;;;28.30;;
51495;SDS011;37572;52.094;4.870;2022-12-18T01:31:09;81.10;;;26.10;;
51495;SDS011;37572;52.094;4.870;2022-12-18T01:33:34;62.03;;;23.42;;
51495;SDS011;37572;52.094;4.870;2022-12-18T01:35:59;61.10;;;22.57;;
51495;SDS011;37572;52.094;4.870;2022-12-18T01:38:25;76.13;;;24.60;;
51495;SDS011;37572;52.094;4.870;2022-12-18T01:40:56;71.20;;;24.73;;
51495;SDS011;37572;52.094;4.870;2022-12-18T01:43:21;74.82;;;25.35;;
51495;SDS011;37572;52.094;4.870;2022-12-18T01:45:46;74.63;;;25.57;;
51495;SDS011;37572;52.094;4.870;2022-12-18T01:48:11;73.83;;;26.10;;
51495;SDS011;37572;52.094;4.870;2022-12-18T01:50:40;74.60;;;24.03;;
51495;SDS011;37572;52.094;4.870;2022-12-18T01:53:19;75.25;;;25.30;;
51495;SDS011;37572;52.094;4.870;2022-12-18T01:55:50;69.82;;;27.65;;
51495;SDS011;37572;52.094;4.870;2022-12-18T01:58:16;72.50;;;26.20;;
51495;SDS011;37572;52.094;4.870;2022-12-18T02:00:41;68.70;;;22.05;;
51495;SDS011;37572;52.094;4.870;2022-12-18T02:03:07;66.37;;;23.40;;
51495;SDS011;37572;52.094;4.870;2022-12-18T02:16:10;64.65;;;21.05;;
51495;SDS011;37572;52.094;4.870;2022-12-18T02:18:40;63.80;;;22.40;;
51495;SDS011;37572;52.094;4.870;2022-12-18T02:23:56;61.92;;;22.50;;
51495;SDS011;37572;52.094;4.870;2022-12-18T02:26:36;66.28;;;23.40;;
51495;SDS011;37572;52.094;4.870;2022-12-18T02:31:29;64.47;;;23.40;;
51495;SDS011;37572;52.094;4.870;2022-12-18T02:33:56;66.70;;;24.42;;
51495;SDS011;37572;52.094;4.870;2022-12-18T02:36:22;75.78;;;26.17;;
51495;SDS011;37572;52.094;4.870;2022-12-18T02:38:49;71.05;;;24.80;;
51495;SDS011;37572;52.094;4.870;2022-12-18T02:41:15;72.15;;;24.13;;
51495;SDS011;37572;52.094;4.870;2022-12-18T02:43:46;68.72;;;24.42;;
51495;SDS011;37572;52.094;4.870;2022-12-18T02:48:52;76.80;;;24.70;;
51495;SDS011;37572;52.094;4.870;2022-12-18T02:51:23;71.13;;;26.42;;
51495;SDS011;37572;52.094;4.870;2022-12-18T02:53:53;73.80;;;25.48;;
51495;SDS011;37572;52.094;4.870;2022-12-18T02:56:31;70.32;;;23.02;;
51495;SDS011;37572;52.094;4.870;2022-12-18T02:59:04;77.82;;;24.75;;
51495;SDS011;37572;52.094;4.870;2022-12-18T03:01:33;79.68;;;25.73;;
51495;SDS011;37572;52.094;4.870;2022-12-18T03:04:01;66.50;;;23.63;;
51495;SDS011;37572;52.094;4.870;2022-12-18T03:06:28;74.57;;;27.00;;
51495;SDS011;37572;52.094;4.870;2022-12-18T03:08:58;77.22;;;25.83;;
51495;SDS011;37572;52.094;4.870;2022-12-18T03:11:24;73.88;;;29.08;;
51495;SDS011;37572;52.094;4.870;2022-12-18T03:14:10;73.13;;;27.42;;
51495;SDS011;37572;52.094;4.870;2022-12-18T03:16:37;74.45;;;26.98;;
51495;SDS011;37572;52.094;4.870;2022-12-18T03:19:08;73.88;;;25.67;;
51495;SDS011;37572;52.094;4.870;2022-12-18T03:24:01;75.20;;;25.15;;
51495;SDS011;37572;52.094;4.870;2022-12-18T03:26:28;70.72;;;22.15;;
51495;SDS011;37572;52.094;4.870;2022-12-18T03:28:56;70.70;;;24.40;;
51495;SDS011;37572;52.094;4.870;2022-12-18T03:31:23;64.50;;;23.40;;
51495;SDS011;37572;52.094;4.870;2022-12-18T03:33:52;71.20;;;24.70;;
51495;SDS011;37572;52.094;4.870;2022-12-18T03:36:18;79.03;;;27.10;;
51495;SDS011;37572;52.094;4.870;2022-12-18T03:38:43;80.83;;;25.60;;
51495;SDS011;37572;52.094;4.870;2022-12-18T03:46:08;72.78;;;24.73;;
51495;SDS011;37572;52.094;4.870;2022-12-18T03:48:44;68.45;;;23.80;;
51495;SDS011;37572;52.094;4.870;2022-12-18T03:51:15;65.63;;;23.35;;
51495;SDS011;37572;52.094;4.870;2022-12-18T03:56:10;73.88;;;25.85;;
51495;SDS011;37572;52.094;4.870;2022-12-18T03:58:37;74.07;;;25.15;;
51495;SDS011;37572;52.094;4.870;2022-12-18T04:01:03;70.05;;;26.48;;
51495;SDS011;37572;52.094;4.870;2022-12-18T04:03:31;68.70;;;25.35;;
51495;SDS011;37572;52.094;4.870;2022-12-18T04:05:57;70.82;;;25.70;;
51495;SDS011;37572;52.094;4.870;2022-12-18T04:08:24;68.20;;;25.95;;
51495;SDS011;37572;52.094;4.870;2022-12-18T04:10:49;60.95;;;24.52;;
51495;SDS011;37572;52.094;4.870;2022-12-18T04:13:21;61.47;;;23.80;;
51495;SDS011;37572;52.094;4.870;2022-12-18T04:15:46;59.15;;;23.85;;
51495;SDS011;37572;52.094;4.870;2022-12-18T04:18:11;62.97;;;22.27;;
51495;SDS011;37572;52.094;4.870;2022-12-18T04:20:37;56.63;;;22.47;;
51495;SDS011;37572;52.094;4.870;2022-12-18T04:23:02;53.33;;;22.73;;
51495;SDS011;37572;52.094;4.870;2022-12-18T04:25:27;64.33;;;25.23;;
51495;SDS011;37572;52.094;4.870;2022-12-18T04:27:52;56.40;;;22.10;;
51495;SDS011;37572;52.094;4.870;2022-12-18T04:30:17;63.77;;;23.87;;
51495;SDS011;37572;52.094;4.870;2022-12-18T04:32:42;59.60;;;23.30;;
51495;SDS011;37572;52.094;4.870;2022-12-18T04:35:08;55.50;;;23.20;;
51495;SDS011;37572;52.094;4.870;2022-12-18T04:37:35;58.00;;;24.33;;
51495;SDS011;37572;52.094;4.870;2022-12-18T04:40:00;55.33;;;20.53;;
51495;SDS011;37572;52.094;4.870;2022-12-18T04:42:25;57.80;;;23.37;;
51495;SDS011;37572;52.094;4.870;2022-12-18T04:44:50;62.83;;;22.53;;
51495;SDS011;37572;52.094;4.870;2022-12-18T04:47:16;52.03;;;23.17;;
51495;SDS011;37572;52.094;4.870;2022-12-18T04:49:41;52.10;;;22.63;;
51495;SDS011;37572;52.094;4.870;2022-12-18T04:52:06;55.33;;;23.90;;
51495;SDS011;37572;52.094;4.870;2022-12-18T04:54:31;55.53;;;22.57;;
51495;SDS011;37572;52.094;4.870;2022-12-18T04:56:56;51.47;;;21.00;;
51495;SDS011;37572;52.094;4.870;2022-12-18T04:59:21;53.40;;;22.17;;
51495;SDS011;37572;52.094;4.870;2022-12-18T05:01:47;44.37;;;19.83;;
51495;SDS011;37572;52.094;4.870;2022-12-18T05:04:12;48.67;;;20.37;;
51495;SDS011;37572;52.094;4.870;2022-12-18T05:06:37;53.00;;;21.70;;
51495;SDS011;37572;52.094;4.870;2022-12-18T05:09:02;52.17;;;20.40;;
51495;SDS011;37572;52.094;4.870;2022-12-18T05:11:27;48.23;;;20.57;;
51495;SDS011;37572;52.094;4.870;2022-12-18T05:13:53;45.83;;;22.00;;
51495;SDS011;37572;52.094;4.870;2022-12-18T05:16:18;54.03;;;21.67;;
51495;SDS011;37572;52.094;4.870;2022-12-18T05:18:43;48.97;;;23.03;;
51495;SDS011;37572;52.094;4.870;2022-12-18T05:21:08;52.13;;;21.27;;
51495;SDS011;37572;52.094;4.870;2022-12-18T05:23:33;51.17;;;21.77;;
51495;SDS011;37572;52.094;4.870;2022-12-18T05:26:00;47.00;;;20.65;;
51495;SDS011;37572;52.094;4.870;2022-12-18T05:28:27;47.67;;;22.23;;
51495;SDS011;37572;52.094;4.870;2022-12-18T05:30:57;40.75;;;18.20;;
51495;SDS011;37572;52.094;4.870;2022-12-18T05:33:23;50.22;;;23.13;;
51495;SDS011;37572;52.094;4.870;2022-12-18T05:35:56;50.88;;;21.67;;
51495;SDS011;37572;52.094;4.870;2022-12-18T05:38:22;44.88;;;21.90;;
51495;SDS011;37572;52.094;4.870;2022-12-18T05:40:48;42.60;;;22.70;;
51495;SDS011;37572;52.094;4.870;2022-12-18T05:43:13;46.08;;;23.23;;
51495;SDS011;37572;52.094;4.870;2022-12-18T05:45:39;41.03;;;19.30;;
51495;SDS011;37572;52.094;4.870;2022-12-18T05:48:04;48.03;;;23.23;;
51495;SDS011;37572;52.094;4.870;2022-12-18T05:50:30;44.60;;;24.15;;
51495;SDS011;37572;52.094;4.870;2022-12-18T05:52:55;46.43;;;22.07;;
51495;SDS011;37572;52.094;4.870;2022-12-18T05:55:20;43.93;;;20.63;;
51495;SDS011;37572;52.094;4.870;2022-12-18T05:57:45;48.23;;;23.07;;
51495;SDS011;37572;52.094;4.870;2022-12-18T06:00:11;50.97;;;24.83;;
51495;SDS011;37572;52.094;4.870;2022-12-18T06:02:36;47.42;;;23.95;;
51495;SDS011;37572;52.094;4.870;2022-12-18T06:05:01;51.63;;;25.03;;
51495;SDS011;37572;52.094;4.870;2022-12-18T06:07:26;45.27;;;23.33;;
51495;SDS011;37572;52.094;4.870;2022-12-18T06:09:52;50.73;;;23.03;;
51495;SDS011;37572;52.094;4.870;2022-12-18T06:12:17;47.73;;;24.50;;
51495;SDS011;37572;52.094;4.870;2022-12-18T06:14:42;47.83;;;23.70;;
51495;SDS011;37572;52.094;4.870;2022-12-18T06:17:07;51.10;;;24.57;;
51495;SDS011;37572;52.094;4.870;2022-12-18T06:19:32;47.30;;;23.13;;
51495;SDS011;37572;52.094;4.870;2022-12-18T06:21:57;40.83;;;21.70;;
51495;SDS011;37572;52.094;4.870;2022-12-18T06:24:23;52.13;;;26.08;;
51495;SDS011;37572;52.094;4.870;2022-12-18T06:26:49;46.93;;;26.17;;
51495;SDS011;37572;52.094;4.870;2022-12-18T06:29:14;53.93;;;24.33;;
51495;SDS011;37572;52.094;4.870;2022-12-18T06:31:39;45.73;;;25.20;;
51495;SDS011;37572;52.094;4.870;2022-12-18T06:34:04;40.17;;;19.73;;
51495;SDS011;37572;52.094;4.870;2022-12-18T06:36:31;51.20;;;24.88;;
51495;SDS011;37572;52.094;4.870;2022-12-18T06:38:56;49.10;;;24.80;;
51495;SDS011;37572;52.094;4.870;2022-12-18T06:41:22;52.28;;;22.63;;
51495;SDS011;37572;52.094;4.870;2022-12-18T06:43:47;47.63;;;25.20;;
51495;SDS011;37572;52.094;4.870;2022-12-18T06:46:12;45.17;;;22.30;;
51495;SDS011;37572;52.094;4.870;2022-12-18T06:48:37;46.47;;;22.07;;
51495;SDS011;37572;52.094;4.870;2022-12-18T06:51:03;46.33;;;21.80;;
51495;SDS011;37572;52.094;4.870;2022-12-18T06:53:28;41.43;;;21.87;;
51495;SDS011;37572;52.094;4.870;2022-12-18T06:56:03;43.30;;;20.17;;
51495;SDS011;37572;52.094;4.870;2022-12-18T06:58:29;48.08;;;22.88;;
51495;SDS011;37572;52.094;4.870;2022-12-18T07:00:59;40.73;;;20.57;;
51495;SDS011;37572;52.094;4.870;2022-12-18T07:03:24;38.85;;;19.13;;
51495;SDS011;37572;52.094;4.870;2022-12-18T07:05:49;45.27;;;21.10;;
51495;SDS011;37572;52.094;4.870;2022-12-18T07:08:14;38.20;;;20.70;;
51495;SDS011;37572;52.094;4.870;2022-12-18T07:10:43;40.80;;;20.73;;
51495;SDS011;37572;52.094;4.870;2022-12-18T07:13:08;38.38;;;20.90;;
51495;SDS011;37572;52.094;4.870;2022-12-18T07:15:33;40.73;;;20.50;;
51495;SDS011;37572;52.094;4.870;2022-12-18T07:17:58;36.97;;;17.93;;
51495;SDS011;37572;52.094;4.870;2022-12-18T07:20:24;33.33;;;18.40;;
51495;SDS011;37572;52.094;4.870;2022-12-18T07:22:49;39.93;;;19.97;;
51495;SDS011;37572;52.094;4.870;2022-12-18T07:25:14;37.00;;;19.50;;
51495;SDS011;37572;52.094;4.870;2022-12-18T07:27:39;35.43;;;18.87;;
51495;SDS011;37572;52.094;4.870;2022-12-18T07:30:05;38.43;;;19.20;;
51495;SDS011;37572;52.094;4.870;2022-12-18T07:32:30;33.50;;;18.38;;
51495;SDS011;37572;52.094;4.870;2022-12-18T07:34:55;34.57;;;19.60;;
51495;SDS011;37572;52.094;4.870;2022-12-18T07:37:20;33.33;;;17.97;;
51495;SDS011;37572;52.094;4.870;2022-12-18T07:39:45;31.80;;;18.10;;
51495;SDS011;37572;52.094;4.870;2022-12-18T07:42:11;34.53;;;18.63;;
51495;SDS011;37572;52.094;4.870;2022-12-18T07:44:55;34.65;;;20.23;;
51495;SDS011;37572;52.094;4.870;2022-12-18T07:47:20;31.90;;;18.00;;
51495;SDS011;37572;52.094;4.870;2022-12-18T07:49:45;32.80;;;17.37;;
51495;SDS011;37572;52.094;4.870;2022-12-18T07:52:10;36.83;;;18.93;;
51495;SDS011;37572;52.094;4.870;2022-12-18T07:54:37;34.13;;;19.08;;
51495;SDS011;37572;52.094;4.870;2022-12-18T07:57:02;32.77;;;17.60;;
51495;SDS011;37572;52.094;4.870;2022-12-18T07:59:27;35.93;;;20.80;;
51495;SDS011;37572;52.094;4.870;2022-12-18T08:01:52;34.80;;;17.27;;
51495;SDS011;37572;52.094;4.870;2022-12-18T08:04:18;35.53;;;18.33;;
51495;SDS011;37572;52.094;4.870;2022-12-18T08:06:43;32.20;;;17.73;;
51495;SDS011;37572;52.094;4.870;2022-12-18T08:09:09;30.77;;;17.70;;
51495;SDS011;37572;52.094;4.870;2022-12-18T08:11:34;32.78;;;16.65;;
51495;SDS011;37572;52.094;4.870;2022-12-18T08:13:59;30.17;;;16.90;;
51495;SDS011;37572;52.094;4.870;2022-12-18T08:16:25;33.30;;;18.47;;
51495;SDS011;37572;52.094;4.870;2022-12-18T08:18:51;33.13;;;16.77;;
51495;SDS011;37572;52.094;4.870;2022-12-18T08:21:18;35.75;;;18.60;;
51495;SDS011;37572;52.094;4.870;2022-12-18T08:23:43;34.17;;;18.13;;
51495;SDS011;37572;52.094;4.870;2022-12-18T08:26:09;29.20;;;17.17;;
51495;SDS011;37572;52.094;4.870;2022-12-18T08:28:34;32.38;;;16.98;;
51495;SDS011;37572;52.094;4.870;2022-12-18T08:30:59;31.47;;;16.73;;
51495;SDS011;37572;52.094;4.870;2022-12-18T08:33:24;28.03;;;14.57;;
51495;SDS011;37572;52.094;4.870;2022-12-18T08:35:49;30.93;;;16.07;;
51495;SDS011;37572;52.094;4.870;2022-12-18T08:38:15;31.13;;;15.43;;
51495;SDS011;37572;52.094;4.870;2022-12-18T08:40:40;30.70;;;16.10;;
51495;SDS011;37572;52.094;4.870;2022-12-18T08:43:05;29.87;;;16.37;;
51495;SDS011;37572;52.094;4.870;2022-12-18T08:45:49;29.63;;;15.82;;
51495;SDS011;37572;52.094;4.870;2022-12-18T08:48:14;28.87;;;15.67;;
51495;SDS011;37572;52.094;4.870;2022-12-18T08:50:39;34.53;;;16.80;;
51495;SDS011;37572;52.094;4.870;2022-12-18T08:53:04;30.80;;;17.07;;
51495;SDS011;37572;52.094;4.870;2022-12-18T08:55:30;33.77;;;17.40;;
51495;SDS011;37572;52.094;4.870;2022-12-18T08:57:55;27.73;;;16.73;;
51495;SDS011;37572;52.094;4.870;2022-12-18T09:00:20;32.70;;;17.10;;
51495;SDS011;37572;52.094;4.870;2022-12-18T09:02:45;34.73;;;16.13;;
51495;SDS011;37572;52.094;4.870;2022-12-18T09:05:11;28.40;;;16.37;;
51495;SDS011;37572;52.094;4.870;2022-12-18T09:07:36;29.20;;;16.33;;
51495;SDS011;37572;52.094;4.870;2022-12-18T09:10:01;27.80;;;15.57;;
51495;SDS011;37572;52.094;4.870;2022-12-18T09:12:26;31.63;;;17.83;;
51495;SDS011;37572;52.094;4.870;2022-12-18T09:14:52;29.23;;;15.40;;
51495;SDS011;37572;52.094;4.870;2022-12-18T09:17:17;27.40;;;15.57;;
51495;SDS011;37572;52.094;4.870;2022-12-18T09:19:42;31.43;;;16.17;;
51495;SDS011;37572;52.094;4.870;2022-12-18T09:22:08;28.38;;;16.45;;
51495;SDS011;37572;52.094;4.870;2022-12-18T09:26:59;28.07;;;15.63;;
51495;SDS011;37572;52.094;4.870;2022-12-18T09:29:24;27.23;;;15.17;;
51495;SDS011;37572;52.094;4.870;2022-12-18T09:31:50;32.17;;;17.00;;
51495;SDS011;37572;52.094;4.870;2022-12-18T09:34:15;32.70;;;18.43;;
51495;SDS011;37572;52.094;4.870;2022-12-18T09:36:40;27.35;;;16.08;;
51495;SDS011;37572;52.094;4.870;2022-12-18T09:39:05;31.30;;;16.47;;
51495;SDS011;37572;52.094;4.870;2022-12-18T09:44:03;30.45;;;16.90;;
51495;SDS011;37572;52.094;4.870;2022-12-18T09:46:33;32.80;;;16.20;;
51495;SDS011;37572;52.094;4.870;2022-12-18T09:49:00;28.08;;;16.27;;
51495;SDS011;37572;52.094;4.870;2022-12-18T09:51:28;29.25;;;14.27;;
51495;SDS011;37572;52.094;4.870;2022-12-18T09:53:55;27.60;;;15.15;;
51495;SDS011;37572;52.094;4.870;2022-12-18T09:56:22;31.63;;;15.73;;
51495;SDS011;37572;52.094;4.870;2022-12-18T09:58:57;28.35;;;18.25;;
51495;SDS011;37572;52.094;4.870;2022-12-18T10:01:23;26.33;;;15.50;;
51495;SDS011;37572;52.094;4.870;2022-12-18T10:03:49;31.20;;;17.30;;
51495;SDS011;37572;52.094;4.870;2022-12-18T10:06:22;31.75;;;18.00;;
51495;SDS011;37572;52.094;4.870;2022-12-18T10:08:49;29.42;;;16.88;;
51495;SDS011;37572;52.094;4.870;2022-12-18T10:16:45;32.20;;;17.02;;
51495;SDS011;37572;52.094;4.870;2022-12-18T10:21:59;27.52;;;16.42;;
51495;SDS011;37572;52.094;4.870;2022-12-18T10:26:59;29.35;;;17.25;;
51495;SDS011;37572;52.094;4.870;2022-12-18T10:29:29;27.92;;;16.27;;
51495;SDS011;37572;52.094;4.870;2022-12-18T10:31:54;28.27;;;16.37;;
51495;SDS011;37572;52.094;4.870;2022-12-18T10:34:19;28.83;;;16.50;;
51495;SDS011;37572;52.094;4.870;2022-12-18T10:36:44;34.47;;;16.40;;
51495;SDS011;37572;52.094;4.870;2022-12-18T10:39:19;28.85;;;18.10;;
51495;SDS011;37572;52.094;4.870;2022-12-18T10:41:45;29.90;;;15.18;;
51495;SDS011;37572;52.094;4.870;2022-12-18T10:44:11;30.40;;;17.23;;
51495;SDS011;37572;52.094;4.870;2022-12-18T10:46:36;25.63;;;14.57;;
51495;SDS011;37572;52.094;4.870;2022-12-18T10:49:01;28.20;;;15.93;;
51495;SDS011;37572;52.094;4.870;2022-12-18T10:51:28;27.73;;;15.27;;
51495;SDS011;37572;52.094;4.870;2022-12-18T10:53:54;28.73;;;14.43;;
51495;SDS011;37572;52.094;4.870;2022-12-18T10:56:20;26.85;;;15.27;;
51495;SDS011;37572;52.094;4.870;2022-12-18T10:58:54;29.40;;;16.45;;
51495;SDS011;37572;52.094;4.870;2022-12-18T11:01:20;27.50;;;14.93;;
51495;SDS011;37572;52.094;4.870;2022-12-18T11:03:46;27.25;;;16.20;;
51495;SDS011;37572;52.094;4.870;2022-12-18T11:06:23;28.10;;;15.73;;
51495;SDS011;37572;52.094;4.870;2022-12-18T11:08:59;24.38;;;14.32;;
51495;SDS011;37572;52.094;4.870;2022-12-18T11:11:25;25.10;;;15.70;;
51495;SDS011;37572;52.094;4.870;2022-12-18T11:13:53;25.57;;;15.20;;
51495;SDS011;37572;52.094;4.870;2022-12-18T11:16:21;29.25;;;15.90;;
51495;SDS011;37572;52.094;4.870;2022-12-18T11:18:46;28.63;;;16.63;;
51495;SDS011;37572;52.094;4.870;2022-12-18T11:21:11;25.43;;;14.90;;
51495;SDS011;37572;52.094;4.870;2022-12-18T11:26:03;26.00;;;14.75;;
51495;SDS011;37572;52.094;4.870;2022-12-18T11:31:28;24.25;;;14.23;;
51495;SDS011;37572;52.094;4.870;2022-12-18T11:36:18;23.60;;;14.60;;
51495;SDS011;37572;52.094;4.870;2022-12-18T11:38:45;24.10;;;14.30;;
51495;SDS011;37572;52.094;4.870;2022-12-18T11:43:38;28.67;;;15.50;;
51495;SDS011;37572;52.094;4.870;2022-12-18T11:46:23;25.13;;;15.13;;
51495;SDS011;37572;52.094;4.870;2022-12-18T11:48:50;26.50;;;16.77;;
51495;SDS011;37572;52.094;4.870;2022-12-18T11:51:20;23.02;;;13.52;;
51495;SDS011;37572;52.094;4.870;2022-12-18T11:53:47;25.23;;;14.05;;
51495;SDS011;37572;52.094;4.870;2022-12-18T12:01:56;26.65;;;14.60;;
51495;SDS011;37572;52.094;4.870;2022-12-18T12:07:14;23.60;;;14.07;;
51495;SDS011;37572;52.094;4.870;2022-12-18T12:10:04;26.92;;;14.75;;
51495;SDS011;37572;52.094;4.870;2022-12-18T12:25:25;28.67;;;16.50;;
51495;SDS011;37572;52.094;4.870;2022-12-18T12:38:15;25.30;;;14.45;;
51495;SDS011;37572;52.094;4.870;2022-12-18T12:40:44;28.30;;;15.40;;
51495;SDS011;37572;52.094;4.870;2022-12-18T12:43:16;26.08;;;15.27;;
51495;SDS011;37572;52.094;4.870;2022-12-18T12:48:20;27.25;;;14.18;;
51495;SDS011;37572;52.094;4.870;2022-12-18T12:50:48;25.40;;;14.10;;
51495;SDS011;37572;52.094;4.870;2022-12-18T12:53:17;26.80;;;15.15;;
51495;SDS011;37572;52.094;4.870;2022-12-18T12:55:45;24.80;;;15.32;;
51495;SDS011;37572;52.094;4.870;2022-12-18T12:58:14;27.70;;;16.57;;
51495;SDS011;37572;52.094;4.870;2022-12-18T13:00:44;27.33;;;16.60;;
51495;SDS011;37572;52.094;4.870;2022-12-18T13:03:34;26.02;;;15.25;;
51495;SDS011;37572;52.094;4.870;2022-12-18T13:06:08;28.08;;;14.50;;
51495;SDS011;37572;52.094;4.870;2022-12-18T13:08:51;25.50;;;15.85;;
51495;SDS011;37572;52.094;4.870;2022-12-18T13:11:30;29.10;;;15.88;;
51495;SDS011;37572;52.094;4.870;2022-12-18T13:16:40;23.15;;;13.60;;
51495;SDS011;37572;52.094;4.870;2022-12-18T13:19:18;26.73;;;14.67;;
51495;SDS011;37572;52.094;4.870;2022-12-18T13:21:45;24.00;;;13.60;;
51495;SDS011;37572;52.094;4.870;2022-12-18T13:24:24;26.50;;;14.98;;
51495;SDS011;37572;52.094;4.870;2022-12-18T13:26:50;23.98;;;14.65;;
51495;SDS011;37572;52.094;4.870;2022-12-18T13:29:40;27.57;;;14.13;;
51495;SDS011;37572;52.094;4.870;2022-12-18T13:34:26;25.33;;;14.02;;
51495;SDS011;37572;52.094;4.870;2022-12-18T13:36:56;26.10;;;14.98;;
51495;SDS011;37572;52.094;4.870;2022-12-18T13:39:25;27.55;;;13.90;;
51495;SDS011;37572;52.094;4.870;2022-12-18T13:44:39;25.00;;;14.57;;
51495;SDS011;37572;52.094;4.870;2022-12-18T13:47:05;26.92;;;16.40;;
51495;SDS011;37572;52.094;4.870;2022-12-18T13:49:49;25.55;;;14.70;;
51495;SDS011;37572;52.094;4.870;2022-12-18T13:52:19;26.53;;;14.40;;
51495;SDS011;37572;52.094;4.870;2022-12-18T13:54:50;25.02;;;16.55;;
51495;SDS011;37572;52.094;4.870;2022-12-18T13:57:35;26.60;;;15.30;;
51495;SDS011;37572;52.094;4.870;2022-12-18T14:02:44;28.98;;;14.23;;
51495;SDS011;37572;52.094;4.870;2022-12-18T14:07:35;24.23;;;13.27;;
51495;SDS011;37572;52.094;4.870;2022-12-18T14:10:01;26.75;;;14.05;;
51495;SDS011;37572;52.094;4.870;2022-12-18T14:12:31;26.05;;;14.32;;
51495;SDS011;37572;52.094;4.870;2022-12-18T14:17:53;27.10;;;16.10;;
51495;SDS011;37572;52.094;4.870;2022-12-18T14:20:19;24.05;;;14.07;;
51495;SDS011;37572;52.094;4.870;2022-12-18T14:22:48;25.43;;;14.67;;
51495;SDS011;37572;52.094;4.870;2022-12-18T14:25:24;26.45;;;17.05;;
51495;SDS011;37572;52.094;4.870;2022-12-18T14:27:50;28.10;;;14.60;;
51495;SDS011;37572;52.094;4.870;2022-12-18T14:30:35;25.30;;;13.48;;
51495;SDS011;37572;52.094;4.870;2022-12-18T14:33:04;26.40;;;14.57;;
51495;SDS011;37572;52.094;4.870;2022-12-18T14:35:30;25.48;;;14.98;;
51495;SDS011;37572;52.094;4.870;2022-12-18T14:40:57;26.42;;;15.77;;
51495;SDS011;37572;52.094;4.870;2022-12-18T14:43:23;27.70;;;15.77;;
51495;SDS011;37572;52.094;4.870;2022-12-18T14:45:48;25.93;;;15.67;;
51495;SDS011;37572;52.094;4.870;2022-12-18T14:48:21;25.70;;;13.75;;
51495;SDS011;37572;52.094;4.870;2022-12-18T14:51:22;25.70;;;13.75;;
51495;SDS011;37572;52.094;4.870;2022-12-18T14:53:40;27.25;;;15.15;;
51495;SDS011;37572;52.094;4.870;2022-12-18T14:56:16;26.67;;;14.05;;
51495;SDS011;37572;52.094;4.870;2022-12-18T15:01:34;26.65;;;14.95;;
51495;SDS011;37572;52.094;4.870;2022-12-18T15:04:02;25.95;;;14.30;;
51495;SDS011;37572;52.094;4.870;2022-12-18T15:06:37;28.23;;;14.68;;
51495;SDS011;37572;52.094;4.870;2022-12-18T15:09:05;29.88;;;17.17;;
51495;SDS011;37572;52.094;4.870;2022-12-18T15:11:45;29.98;;;16.50;;
51495;SDS011;37572;52.094;4.870;2022-12-18T15:16:54;28.60;;;15.90;;
51495;SDS011;37572;52.094;4.870;2022-12-18T15:19:20;26.98;;;14.93;;
51495;SDS011;37572;52.094;4.870;2022-12-18T15:21:46;26.98;;;14.88;;
51495;SDS011;37572;52.094;4.870;2022-12-18T15:24:18;27.47;;;14.47;;
51495;SDS011;37572;52.094;4.870;2022-12-18T15:26:46;30.50;;;16.33;;
51495;SDS011;37572;52.094;4.870;2022-12-18T15:29:22;24.67;;;13.82;;
51495;SDS011;37572;52.094;4.870;2022-12-18T15:32:00;27.17;;;15.65;;
51495;SDS011;37572;52.094;4.870;2022-12-18T15:34:26;25.75;;;13.68;;
51495;SDS011;37572;52.094;4.870;2022-12-18T15:36:51;26.45;;;14.77;;
51495;SDS011;37572;52.094;4.870;2022-12-18T15:39:16;26.63;;;15.20;;
51495;SDS011;37572;52.094;4.870;2022-12-18T15:41:42;24.93;;;13.17;;
51495;SDS011;37572;52.094;4.870;2022-12-18T15:44:27;25.42;;;14.75;;
51495;SDS011;37572;52.094;4.870;2022-12-18T15:46:52;26.13;;;14.03;;
51495;SDS011;37572;52.094;4.870;2022-12-18T15:49:17;27.07;;;16.20;;
51495;SDS011;37572;52.094;4.870;2022-12-18T15:51:43;27.43;;;15.50;;
51495;SDS011;37572;52.094;4.870;2022-12-18T15:54:12;25.87;;;15.43;;
51495;SDS011;37572;52.094;4.870;2022-12-18T15:56:38;25.63;;;13.82;;
51495;SDS011;37572;52.094;4.870;2022-12-18T15:59:22;26.45;;;15.23;;
51495;SDS011;37572;52.094;4.870;2022-12-18T16:01:48;23.70;;;14.57;;
51495;SDS011;37572;52.094;4.870;2022-12-18T16:04:15;28.70;;;16.30;;
51495;SDS011;37572;52.094;4.870;2022-12-18T16:06:41;27.27;;;16.35;;
51495;SDS011;37572;52.094;4.870;2022-12-18T16:09:06;29.75;;;17.33;;
51495;SDS011;37572;52.094;4.870;2022-12-18T16:11:32;27.40;;;16.40;;
51495;SDS011;37572;52.094;4.870;2022-12-18T16:16:33;27.33;;;15.85;;
51495;SDS011;37572;52.094;4.870;2022-12-18T16:18:58;25.77;;;15.47;;